sensor_id;sensor_type;location;lat;lon;timestamp;P1;durP1;ratioP1;P2;durP2;ratioP2
76194;SDS011;64964;48.694;21.206;2023-03-08T00:00:11;15.70;;;7.73;;
76194;SDS011;64964;48.694;21.206;2023-03-08T00:02:39;18.73;;;8.65;;
76194;SDS011;64964;48.694;21.206;2023-03-08T00:05:06;20.60;;;8.07;;
76194;SDS011;64964;48.694;21.206;2023-03-08T00:07:32;17.33;;;8.27;;
76194;SDS011;64964;48.694;21.206;2023-03-08T00:09:57;18.52;;;8.63;;
76194;SDS011;64964;48.694;21.206;2023-03-08T00:12:23;19.70;;;8.50;;
76194;SDS011;64964;48.694;21.206;2023-03-08T00:14:49;20.02;;;8.10;;
76194;SDS011;64964;48.694;21.206;2023-03-08T00:17:15;18.70;;;8.50;;
76194;SDS011;64964;48.694;21.206;2023-03-08T00:19:41;19.77;;;8.60;;
76194;SDS011;64964;48.694;21.206;2023-03-08T00:22:07;18.15;;;8.95;;
76194;SDS011;64964;48.694;21.206;2023-03-08T00:24:32;19.10;;;8.53;;
76194;SDS011;64964;48.694;21.206;2023-03-08T00:26:58;16.02;;;7.43;;
76194;SDS011;64964;48.694;21.206;2023-03-08T00:29:23;20.50;;;9.13;;
76194;SDS011;64964;48.694;21.206;2023-03-08T00:31:49;20.40;;;8.80;;
76194;SDS011;64964;48.694;21.206;2023-03-08T00:34:15;19.55;;;9.07;;
76194;SDS011;64964;48.694;21.206;2023-03-08T00:36:40;19.25;;;9.07;;
76194;SDS011;64964;48.694;21.206;2023-03-08T00:39:06;22.80;;;10.37;;
76194;SDS011;64964;48.694;21.206;2023-03-08T00:41:32;21.10;;;9.00;;
76194;SDS011;64964;48.694;21.206;2023-03-08T00:43:57;25.17;;;10.83;;
76194;SDS011;64964;48.694;21.206;2023-03-08T00:46:23;21.03;;;9.90;;
76194;SDS011;64964;48.694;21.206;2023-03-08T00:48:49;20.15;;;9.20;;
76194;SDS011;64964;48.694;21.206;2023-03-08T00:51:15;20.67;;;9.63;;
76194;SDS011;64964;48.694;21.206;2023-03-08T00:53:42;19.90;;;8.70;;
76194;SDS011;64964;48.694;21.206;2023-03-08T00:56:08;19.08;;;9.20;;
76194;SDS011;64964;48.694;21.206;2023-03-08T00:58:35;21.17;;;9.17;;
76194;SDS011;64964;48.694;21.206;2023-03-08T01:01:01;22.65;;;9.77;;
76194;SDS011;64964;48.694;21.206;2023-03-08T01:03:26;19.83;;;9.23;;
76194;SDS011;64964;48.694;21.206;2023-03-08T01:05:53;22.50;;;10.88;;
76194;SDS011;64964;48.694;21.206;2023-03-08T01:08:19;23.10;;;10.70;;
76194;SDS011;64964;48.694;21.206;2023-03-08T01:10:46;21.75;;;10.80;;
76194;SDS011;64964;48.694;21.206;2023-03-08T01:13:15;20.90;;;9.33;;
76194;SDS011;64964;48.694;21.206;2023-03-08T01:15:41;19.63;;;8.80;;
76194;SDS011;64964;48.694;21.206;2023-03-08T01:18:07;18.13;;;9.10;;
76194;SDS011;64964;48.694;21.206;2023-03-08T01:20:33;19.02;;;9.27;;
76194;SDS011;64964;48.694;21.206;2023-03-08T01:22:58;16.13;;;8.50;;
76194;SDS011;64964;48.694;21.206;2023-03-08T01:25:24;21.07;;;9.27;;
76194;SDS011;64964;48.694;21.206;2023-03-08T01:27:50;17.98;;;9.07;;
76194;SDS011;64964;48.694;21.206;2023-03-08T01:30:15;21.20;;;8.70;;
76194;SDS011;64964;48.694;21.206;2023-03-08T01:32:41;18.07;;;8.73;;
76194;SDS011;64964;48.694;21.206;2023-03-08T01:35:06;17.17;;;9.03;;
76194;SDS011;64964;48.694;21.206;2023-03-08T01:37:32;23.03;;;9.40;;
76194;SDS011;64964;48.694;21.206;2023-03-08T01:39:58;18.48;;;9.25;;
76194;SDS011;64964;48.694;21.206;2023-03-08T01:42:24;19.35;;;8.95;;
76194;SDS011;64964;48.694;21.206;2023-03-08T01:44:57;20.88;;;8.85;;
76194;SDS011;64964;48.694;21.206;2023-03-08T01:47:26;19.23;;;9.02;;
76194;SDS011;64964;48.694;21.206;2023-03-08T01:49:53;21.10;;;9.87;;
76194;SDS011;64964;48.694;21.206;2023-03-08T01:52:25;25.70;;;11.38;;
76194;SDS011;64964;48.694;21.206;2023-03-08T01:54:56;26.63;;;11.27;;
76194;SDS011;64964;48.694;21.206;2023-03-08T01:57:36;22.13;;;10.25;;
76194;SDS011;64964;48.694;21.206;2023-03-08T02:00:09;22.25;;;9.80;;
76194;SDS011;64964;48.694;21.206;2023-03-08T02:02:42;18.53;;;9.33;;
76194;SDS011;64964;48.694;21.206;2023-03-08T02:05:12;21.13;;;9.90;;
76194;SDS011;64964;48.694;21.206;2023-03-08T02:07:38;21.67;;;9.55;;
76194;SDS011;64964;48.694;21.206;2023-03-08T02:10:04;19.83;;;9.47;;
76194;SDS011;64964;48.694;21.206;2023-03-08T02:12:30;22.08;;;9.27;;
76194;SDS011;64964;48.694;21.206;2023-03-08T02:14:56;20.00;;;9.57;;
76194;SDS011;64964;48.694;21.206;2023-03-08T02:17:22;20.25;;;8.93;;
76194;SDS011;64964;48.694;21.206;2023-03-08T02:19:51;23.73;;;10.17;;
76194;SDS011;64964;48.694;21.206;2023-03-08T02:22:30;22.17;;;10.50;;
76194;SDS011;64964;48.694;21.206;2023-03-08T02:24:56;22.17;;;10.50;;
76194;SDS011;64964;48.694;21.206;2023-03-08T02:27:25;24.50;;;10.20;;
76194;SDS011;64964;48.694;21.206;2023-03-08T02:29:52;21.33;;;9.75;;
76194;SDS011;64964;48.694;21.206;2023-03-08T02:32:17;25.57;;;10.73;;
76194;SDS011;64964;48.694;21.206;2023-03-08T02:34:43;23.13;;;10.07;;
76194;SDS011;64964;48.694;21.206;2023-03-08T02:37:08;18.93;;;8.93;;
76194;SDS011;64964;48.694;21.206;2023-03-08T02:39:34;20.43;;;10.47;;
76194;SDS011;64964;48.694;21.206;2023-03-08T02:41:59;21.87;;;10.43;;
76194;SDS011;64964;48.694;21.206;2023-03-08T02:44:24;21.15;;;10.40;;
76194;SDS011;64964;48.694;21.206;2023-03-08T02:46:50;23.93;;;9.83;;
76194;SDS011;64964;48.694;21.206;2023-03-08T02:49:16;22.05;;;10.30;;
76194;SDS011;64964;48.694;21.206;2023-03-08T02:51:42;21.27;;;10.13;;
76194;SDS011;64964;48.694;21.206;2023-03-08T02:54:07;20.10;;;9.10;;
76194;SDS011;64964;48.694;21.206;2023-03-08T02:56:33;20.63;;;9.73;;
76194;SDS011;64964;48.694;21.206;2023-03-08T02:58:58;20.40;;;9.77;;
76194;SDS011;64964;48.694;21.206;2023-03-08T03:01:24;19.70;;;9.77;;
76194;SDS011;64964;48.694;21.206;2023-03-08T03:03:52;22.93;;;9.53;;
76194;SDS011;64964;48.694;21.206;2023-03-08T03:06:19;22.58;;;10.13;;
76194;SDS011;64964;48.694;21.206;2023-03-08T03:08:45;22.67;;;9.95;;
76194;SDS011;64964;48.694;21.206;2023-03-08T03:11:14;19.17;;;9.52;;
76194;SDS011;64964;48.694;21.206;2023-03-08T03:13:42;21.20;;;9.20;;
76194;SDS011;64964;48.694;21.206;2023-03-08T03:16:08;23.20;;;10.40;;
76194;SDS011;64964;48.694;21.206;2023-03-08T03:18:38;22.67;;;9.90;;
76194;SDS011;64964;48.694;21.206;2023-03-08T03:21:04;21.00;;;10.20;;
76194;SDS011;64964;48.694;21.206;2023-03-08T03:23:31;22.00;;;10.05;;
76194;SDS011;64964;48.694;21.206;2023-03-08T03:26:02;21.63;;;10.03;;
76194;SDS011;64964;48.694;21.206;2023-03-08T03:28:31;21.55;;;9.70;;
76194;SDS011;64964;48.694;21.206;2023-03-08T03:30:56;20.47;;;9.50;;
76194;SDS011;64964;48.694;21.206;2023-03-08T03:33:22;18.97;;;9.10;;
76194;SDS011;64964;48.694;21.206;2023-03-08T03:35:47;22.00;;;10.47;;
76194;SDS011;64964;48.694;21.206;2023-03-08T03:38:13;20.27;;;9.33;;
76194;SDS011;64964;48.694;21.206;2023-03-08T03:40:38;19.50;;;9.70;;
76194;SDS011;64964;48.694;21.206;2023-03-08T03:43:03;18.70;;;8.90;;
76194;SDS011;64964;48.694;21.206;2023-03-08T03:45:29;20.67;;;9.90;;
76194;SDS011;64964;48.694;21.206;2023-03-08T03:47:54;25.10;;;10.47;;
76194;SDS011;64964;48.694;21.206;2023-03-08T03:50:19;19.07;;;9.13;;
76194;SDS011;64964;48.694;21.206;2023-03-08T03:52:45;21.13;;;9.48;;
76194;SDS011;64964;48.694;21.206;2023-03-08T03:55:10;22.40;;;10.90;;
76194;SDS011;64964;48.694;21.206;2023-03-08T03:57:35;22.57;;;10.07;;
76194;SDS011;64964;48.694;21.206;2023-03-08T04:00:01;21.20;;;9.03;;
76194;SDS011;64964;48.694;21.206;2023-03-08T04:02:26;18.23;;;9.57;;
76194;SDS011;64964;48.694;21.206;2023-03-08T04:04:52;20.95;;;9.50;;
76194;SDS011;64964;48.694;21.206;2023-03-08T04:07:17;19.80;;;9.27;;
76194;SDS011;64964;48.694;21.206;2023-03-08T04:09:43;14.93;;;6.37;;
76194;SDS011;64964;48.694;21.206;2023-03-08T04:12:08;24.80;;;10.73;;
76194;SDS011;64964;48.694;21.206;2023-03-08T04:14:34;21.63;;;9.37;;
76194;SDS011;64964;48.694;21.206;2023-03-08T04:16:59;21.80;;;9.55;;
76194;SDS011;64964;48.694;21.206;2023-03-08T04:19:25;20.57;;;10.13;;
76194;SDS011;64964;48.694;21.206;2023-03-08T04:21:50;16.27;;;8.43;;
76194;SDS011;64964;48.694;21.206;2023-03-08T04:24:16;22.97;;;10.87;;
76194;SDS011;64964;48.694;21.206;2023-03-08T04:26:41;14.13;;;6.67;;
76194;SDS011;64964;48.694;21.206;2023-03-08T04:29:06;19.20;;;9.83;;
76194;SDS011;64964;48.694;21.206;2023-03-08T04:31:32;21.33;;;9.63;;
76194;SDS011;64964;48.694;21.206;2023-03-08T04:33:59;16.63;;;8.25;;
76194;SDS011;64964;48.694;21.206;2023-03-08T04:36:25;23.25;;;10.55;;
76194;SDS011;64964;48.694;21.206;2023-03-08T04:38:50;16.90;;;8.77;;
76194;SDS011;64964;48.694;21.206;2023-03-08T04:41:16;16.25;;;8.23;;
76194;SDS011;64964;48.694;21.206;2023-03-08T04:46:11;21.35;;;10.23;;
76194;SDS011;64964;48.694;21.206;2023-03-08T04:48:37;18.50;;;9.43;;
76194;SDS011;64964;48.694;21.206;2023-03-08T04:51:03;23.15;;;10.48;;
76194;SDS011;64964;48.694;21.206;2023-03-08T04:53:29;21.00;;;9.10;;
76194;SDS011;64964;48.694;21.206;2023-03-08T04:55:56;25.20;;;10.68;;
76194;SDS011;64964;48.694;21.206;2023-03-08T04:58:23;28.13;;;10.60;;
76194;SDS011;64964;48.694;21.206;2023-03-08T05:00:48;22.30;;;10.47;;
76194;SDS011;64964;48.694;21.206;2023-03-08T05:03:14;19.83;;;10.32;;
76194;SDS011;64964;48.694;21.206;2023-03-08T05:05:46;25.30;;;10.70;;
76194;SDS011;64964;48.694;21.206;2023-03-08T05:08:12;21.77;;;10.38;;
76194;SDS011;64964;48.694;21.206;2023-03-08T05:10:38;22.05;;;9.88;;
76194;SDS011;64964;48.694;21.206;2023-03-08T05:13:04;22.90;;;10.30;;
76194;SDS011;64964;48.694;21.206;2023-03-08T05:15:29;25.77;;;11.73;;
76194;SDS011;64964;48.694;21.206;2023-03-08T05:17:55;26.65;;;12.32;;
76194;SDS011;64964;48.694;21.206;2023-03-08T05:20:20;26.57;;;12.13;;
76194;SDS011;64964;48.694;21.206;2023-03-08T05:22:45;23.93;;;11.57;;
76194;SDS011;64964;48.694;21.206;2023-03-08T05:25:11;24.97;;;11.33;;
76194;SDS011;64964;48.694;21.206;2023-03-08T05:27:36;19.47;;;9.93;;
76194;SDS011;64964;48.694;21.206;2023-03-08T05:30:02;23.80;;;10.47;;
76194;SDS011;64964;48.694;21.206;2023-03-08T05:32:29;21.52;;;11.05;;
76194;SDS011;64964;48.694;21.206;2023-03-08T05:34:54;25.20;;;10.97;;
76194;SDS011;64964;48.694;21.206;2023-03-08T05:37:19;23.13;;;10.70;;
76194;SDS011;64964;48.694;21.206;2023-03-08T05:39:46;21.98;;;10.48;;
76194;SDS011;64964;48.694;21.206;2023-03-08T05:42:12;26.60;;;11.02;;
76194;SDS011;64964;48.694;21.206;2023-03-08T05:44:37;23.53;;;11.13;;
76194;SDS011;64964;48.694;21.206;2023-03-08T05:47:03;25.50;;;11.93;;
76194;SDS011;64964;48.694;21.206;2023-03-08T05:49:29;30.15;;;12.30;;
76194;SDS011;64964;48.694;21.206;2023-03-08T05:51:54;29.07;;;12.17;;
76194;SDS011;64964;48.694;21.206;2023-03-08T05:54:20;23.70;;;11.30;;
76194;SDS011;64964;48.694;21.206;2023-03-08T05:56:45;22.92;;;11.05;;
76194;SDS011;64964;48.694;21.206;2023-03-08T05:59:10;21.73;;;10.27;;
76194;SDS011;64964;48.694;21.206;2023-03-08T06:01:37;23.75;;;10.75;;
76194;SDS011;64964;48.694;21.206;2023-03-08T06:04:02;21.33;;;10.33;;
76194;SDS011;64964;48.694;21.206;2023-03-08T06:06:27;21.93;;;10.43;;
76194;SDS011;64964;48.694;21.206;2023-03-08T06:08:53;27.27;;;11.80;;
76194;SDS011;64964;48.694;21.206;2023-03-08T06:11:20;25.00;;;11.90;;
76194;SDS011;64964;48.694;21.206;2023-03-08T06:13:46;25.00;;;12.38;;
76194;SDS011;64964;48.694;21.206;2023-03-08T06:16:12;23.00;;;11.70;;
76194;SDS011;64964;48.694;21.206;2023-03-08T06:18:37;23.80;;;11.13;;
76194;SDS011;64964;48.694;21.206;2023-03-08T06:21:05;24.07;;;11.47;;
76194;SDS011;64964;48.694;21.206;2023-03-08T06:23:33;26.67;;;13.02;;
76194;SDS011;64964;48.694;21.206;2023-03-08T06:25:59;23.65;;;11.50;;
76194;SDS011;64964;48.694;21.206;2023-03-08T06:28:26;22.27;;;11.30;;
76194;SDS011;64964;48.694;21.206;2023-03-08T06:30:52;26.65;;;12.02;;
76194;SDS011;64964;48.694;21.206;2023-03-08T06:33:18;26.17;;;12.07;;
76194;SDS011;64964;48.694;21.206;2023-03-08T06:35:55;26.55;;;11.90;;
76194;SDS011;64964;48.694;21.206;2023-03-08T06:38:23;28.05;;;12.32;;
76194;SDS011;64964;48.694;21.206;2023-03-08T06:40:50;26.97;;;12.17;;
76194;SDS011;64964;48.694;21.206;2023-03-08T06:43:15;29.10;;;13.00;;
76194;SDS011;64964;48.694;21.206;2023-03-08T06:45:40;24.43;;;12.17;;
76194;SDS011;64964;48.694;21.206;2023-03-08T06:48:06;25.50;;;12.33;;
76194;SDS011;64964;48.694;21.206;2023-03-08T06:50:32;22.58;;;11.05;;
76194;SDS011;64964;48.694;21.206;2023-03-08T06:52:58;25.60;;;11.27;;
76194;SDS011;64964;48.694;21.206;2023-03-08T06:55:23;28.17;;;12.70;;
76194;SDS011;64964;48.694;21.206;2023-03-08T06:57:49;28.38;;;12.60;;
76194;SDS011;64964;48.694;21.206;2023-03-08T07:00:15;25.03;;;11.60;;
76194;SDS011;64964;48.694;21.206;2023-03-08T07:02:41;25.00;;;12.05;;
76194;SDS011;64964;48.694;21.206;2023-03-08T07:05:06;25.87;;;12.50;;
76194;SDS011;64964;48.694;21.206;2023-03-08T07:07:32;21.55;;;9.95;;
76194;SDS011;64964;48.694;21.206;2023-03-08T07:09:59;21.00;;;8.80;;
76194;SDS011;64964;48.694;21.206;2023-03-08T07:12:25;25.60;;;11.50;;
76194;SDS011;64964;48.694;21.206;2023-03-08T07:14:51;24.87;;;11.30;;
76194;SDS011;64964;48.694;21.206;2023-03-08T07:17:17;25.90;;;11.90;;
76194;SDS011;64964;48.694;21.206;2023-03-08T07:19:43;22.48;;;10.45;;
76194;SDS011;64964;48.694;21.206;2023-03-08T07:22:09;29.77;;;12.10;;
76194;SDS011;64964;48.694;21.206;2023-03-08T07:24:37;25.15;;;12.07;;
76194;SDS011;64964;48.694;21.206;2023-03-08T07:27:02;26.20;;;12.82;;
76194;SDS011;64964;48.694;21.206;2023-03-08T07:29:28;23.63;;;11.70;;
76194;SDS011;64964;48.694;21.206;2023-03-08T07:31:54;23.93;;;11.03;;
76194;SDS011;64964;48.694;21.206;2023-03-08T07:34:19;25.00;;;11.83;;
76194;SDS011;64964;48.694;21.206;2023-03-08T07:36:45;19.30;;;8.50;;
76194;SDS011;64964;48.694;21.206;2023-03-08T07:39:10;24.40;;;12.27;;
76194;SDS011;64964;48.694;21.206;2023-03-08T07:41:35;25.80;;;12.67;;
76194;SDS011;64964;48.694;21.206;2023-03-08T07:44:01;23.98;;;12.20;;
76194;SDS011;64964;48.694;21.206;2023-03-08T07:46:26;26.33;;;11.60;;
76194;SDS011;64964;48.694;21.206;2023-03-08T07:48:52;25.70;;;12.50;;
76194;SDS011;64964;48.694;21.206;2023-03-08T07:51:17;27.13;;;13.20;;
76194;SDS011;64964;48.694;21.206;2023-03-08T07:53:43;24.53;;;11.20;;
76194;SDS011;64964;48.694;21.206;2023-03-08T07:56:09;25.92;;;11.70;;
76194;SDS011;64964;48.694;21.206;2023-03-08T07:58:34;23.97;;;11.83;;
76194;SDS011;64964;48.694;21.206;2023-03-08T08:01:00;24.73;;;12.20;;
76194;SDS011;64964;48.694;21.206;2023-03-08T08:03:25;21.55;;;11.77;;
76194;SDS011;64964;48.694;21.206;2023-03-08T08:05:53;21.47;;;11.63;;
76194;SDS011;64964;48.694;21.206;2023-03-08T08:08:18;21.33;;;12.18;;
76194;SDS011;64964;48.694;21.206;2023-03-08T08:10:44;22.53;;;11.73;;
76194;SDS011;64964;48.694;21.206;2023-03-08T08:13:09;22.27;;;12.63;;
76194;SDS011;64964;48.694;21.206;2023-03-08T08:15:35;23.43;;;12.23;;
76194;SDS011;64964;48.694;21.206;2023-03-08T08:18:00;20.25;;;12.10;;
76194;SDS011;64964;48.694;21.206;2023-03-08T08:20:25;19.40;;;11.77;;
76194;SDS011;64964;48.694;21.206;2023-03-08T08:22:52;19.33;;;11.70;;
76194;SDS011;64964;48.694;21.206;2023-03-08T08:25:18;21.10;;;12.00;;
76194;SDS011;64964;48.694;21.206;2023-03-08T08:27:44;19.00;;;11.52;;
76194;SDS011;64964;48.694;21.206;2023-03-08T08:30:11;17.83;;;11.53;;
76194;SDS011;64964;48.694;21.206;2023-03-08T08:32:38;20.03;;;11.30;;
76194;SDS011;64964;48.694;21.206;2023-03-08T08:35:03;22.30;;;12.13;;
76194;SDS011;64964;48.694;21.206;2023-03-08T08:37:30;19.67;;;11.50;;
76194;SDS011;64964;48.694;21.206;2023-03-08T08:39:56;18.92;;;11.73;;
76194;SDS011;64964;48.694;21.206;2023-03-08T08:42:21;19.50;;;11.97;;
76194;SDS011;64964;48.694;21.206;2023-03-08T08:44:47;21.48;;;11.85;;
76194;SDS011;64964;48.694;21.206;2023-03-08T08:47:12;21.93;;;12.60;;
76194;SDS011;64964;48.694;21.206;2023-03-08T08:49:37;19.63;;;12.20;;
76194;SDS011;64964;48.694;21.206;2023-03-08T08:52:03;20.03;;;12.30;;
76194;SDS011;64964;48.694;21.206;2023-03-08T08:54:29;25.58;;;12.57;;
76194;SDS011;64964;48.694;21.206;2023-03-08T08:56:54;21.23;;;12.57;;
76194;SDS011;64964;48.694;21.206;2023-03-08T08:59:20;18.33;;;11.10;;
76194;SDS011;64964;48.694;21.206;2023-03-08T09:01:45;20.60;;;11.53;;
76194;SDS011;64964;48.694;21.206;2023-03-08T09:04:11;19.47;;;10.23;;
76194;SDS011;64964;48.694;21.206;2023-03-08T09:06:37;16.92;;;10.68;;
76194;SDS011;64964;48.694;21.206;2023-03-08T09:09:03;18.00;;;10.43;;
76194;SDS011;64964;48.694;21.206;2023-03-08T09:11:29;17.45;;;10.23;;
76194;SDS011;64964;48.694;21.206;2023-03-08T09:13:55;18.90;;;10.57;;
76194;SDS011;64964;48.694;21.206;2023-03-08T09:16:22;15.07;;;9.60;;
76194;SDS011;64964;48.694;21.206;2023-03-08T09:18:49;16.13;;;9.18;;
76194;SDS011;64964;48.694;21.206;2023-03-08T09:21:15;16.67;;;9.88;;
76194;SDS011;64964;48.694;21.206;2023-03-08T09:23:40;19.43;;;9.83;;
76194;SDS011;64964;48.694;21.206;2023-03-08T09:26:06;18.13;;;9.70;;
76194;SDS011;64964;48.694;21.206;2023-03-08T09:28:32;16.33;;;9.50;;
76194;SDS011;64964;48.694;21.206;2023-03-08T09:30:58;17.80;;;10.65;;
76194;SDS011;64964;48.694;21.206;2023-03-08T09:33:23;18.93;;;10.50;;
76194;SDS011;64964;48.694;21.206;2023-03-08T09:35:56;18.75;;;10.23;;
76194;SDS011;64964;48.694;21.206;2023-03-08T09:38:22;18.13;;;10.00;;
76194;SDS011;64964;48.694;21.206;2023-03-08T09:40:52;15.57;;;10.30;;
76194;SDS011;64964;48.694;21.206;2023-03-08T09:46:54;16.85;;;9.90;;
76194;SDS011;64964;48.694;21.206;2023-03-08T09:49:48;17.98;;;9.85;;
76194;SDS011;64964;48.694;21.206;2023-03-08T09:52:21;17.77;;;8.23;;
76194;SDS011;64964;48.694;21.206;2023-03-08T09:54:46;19.00;;;10.77;;
76194;SDS011;64964;48.694;21.206;2023-03-08T09:57:18;15.25;;;8.68;;
76194;SDS011;64964;48.694;21.206;2023-03-08T09:59:55;17.30;;;8.85;;
76194;SDS011;64964;48.694;21.206;2023-03-08T10:07:59;15.65;;;8.20;;
76194;SDS011;64964;48.694;21.206;2023-03-08T10:16:18;14.52;;;8.50;;
76194;SDS011;64964;48.694;21.206;2023-03-08T10:21:25;14.68;;;8.32;;
76194;SDS011;64964;48.694;21.206;2023-03-08T10:26:42;19.65;;;13.27;;
76194;SDS011;64964;48.694;21.206;2023-03-08T10:29:10;11.90;;;6.93;;
76194;SDS011;64964;48.694;21.206;2023-03-08T10:31:37;12.70;;;7.60;;
76194;SDS011;64964;48.694;21.206;2023-03-08T10:34:10;15.07;;;7.43;;
76194;SDS011;64964;48.694;21.206;2023-03-08T10:36:47;11.48;;;7.65;;
76194;SDS011;64964;48.694;21.206;2023-03-08T10:39:14;15.20;;;7.80;;
76194;SDS011;64964;48.694;21.206;2023-03-08T10:41:50;11.73;;;7.47;;
76194;SDS011;64964;48.694;21.206;2023-03-08T10:47:18;15.43;;;8.50;;
76194;SDS011;64964;48.694;21.206;2023-03-08T10:49:45;19.08;;;8.38;;
76194;SDS011;64964;48.694;21.206;2023-03-08T10:52:19;11.47;;;6.30;;
76194;SDS011;64964;48.694;21.206;2023-03-08T10:55:03;10.30;;;6.60;;
76194;SDS011;64964;48.694;21.206;2023-03-08T10:57:30;10.85;;;5.85;;
76194;SDS011;64964;48.694;21.206;2023-03-08T10:59:57;8.30;;;5.38;;
76194;SDS011;64964;48.694;21.206;2023-03-08T11:02:29;9.43;;;6.18;;
76194;SDS011;64964;48.694;21.206;2023-03-08T11:04:55;13.90;;;7.60;;
76194;SDS011;64964;48.694;21.206;2023-03-08T11:07:23;10.63;;;6.38;;
76194;SDS011;64964;48.694;21.206;2023-03-08T11:12:39;9.83;;;5.60;;
76194;SDS011;64964;48.694;21.206;2023-03-08T11:15:14;10.02;;;5.32;;
76194;SDS011;64964;48.694;21.206;2023-03-08T11:18:02;8.30;;;5.35;;
76194;SDS011;64964;48.694;21.206;2023-03-08T11:20:44;14.32;;;6.88;;
76194;SDS011;64964;48.694;21.206;2023-03-08T11:26:49;9.65;;;6.55;;
76194;SDS011;64964;48.694;21.206;2023-03-08T11:37:21;9.27;;;5.80;;
76194;SDS011;64964;48.694;21.206;2023-03-08T11:55:52;7.60;;;4.80;;
76194;SDS011;64964;48.694;21.206;2023-03-08T12:01:01;8.25;;;4.88;;
76194;SDS011;64964;48.694;21.206;2023-03-08T12:03:32;8.30;;;4.97;;
76194;SDS011;64964;48.694;21.206;2023-03-08T12:06:04;8.63;;;5.20;;
76194;SDS011;64964;48.694;21.206;2023-03-08T12:08:47;7.75;;;4.40;;
76194;SDS011;64964;48.694;21.206;2023-03-08T12:11:20;8.85;;;5.50;;
76194;SDS011;64964;48.694;21.206;2023-03-08T12:14:40;8.55;;;4.13;;
76194;SDS011;64964;48.694;21.206;2023-03-08T12:32:37;7.43;;;4.72;;
76194;SDS011;64964;48.694;21.206;2023-03-08T12:35:06;5.43;;;3.25;;
76194;SDS011;64964;48.694;21.206;2023-03-08T12:38:03;9.50;;;3.93;;
76194;SDS011;64964;48.694;21.206;2023-03-08T12:45:46;10.38;;;5.22;;
76194;SDS011;64964;48.694;21.206;2023-03-08T12:48:22;8.93;;;5.30;;
76194;SDS011;64964;48.694;21.206;2023-03-08T12:56:20;9.27;;;5.15;;
76194;SDS011;64964;48.694;21.206;2023-03-08T12:58:52;7.03;;;4.55;;
76194;SDS011;64964;48.694;21.206;2023-03-08T13:01:27;10.43;;;5.25;;
76194;SDS011;64964;48.694;21.206;2023-03-08T13:03:53;9.87;;;5.47;;
76194;SDS011;64964;48.694;21.206;2023-03-08T13:08:57;8.93;;;4.75;;
76194;SDS011;64964;48.694;21.206;2023-03-08T13:11:36;8.03;;;4.47;;
76194;SDS011;64964;48.694;21.206;2023-03-08T13:14:03;7.15;;;3.78;;
76194;SDS011;64964;48.694;21.206;2023-03-08T13:16:36;8.05;;;3.78;;
76194;SDS011;64964;48.694;21.206;2023-03-08T13:19:15;9.40;;;3.60;;
76194;SDS011;64964;48.694;21.206;2023-03-08T13:22:10;21.33;;;4.30;;
76194;SDS011;64964;48.694;21.206;2023-03-08T13:24:57;8.67;;;3.63;;
76194;SDS011;64964;48.694;21.206;2023-03-08T13:27:48;5.50;;;2.92;;
76194;SDS011;64964;48.694;21.206;2023-03-08T13:30:30;4.93;;;2.90;;
76194;SDS011;64964;48.694;21.206;2023-03-08T13:32:58;8.80;;;3.28;;
76194;SDS011;64964;48.694;21.206;2023-03-08T13:35:24;5.07;;;3.00;;
76194;SDS011;64964;48.694;21.206;2023-03-08T13:37:50;5.97;;;3.33;;
76194;SDS011;64964;48.694;21.206;2023-03-08T13:40:18;6.50;;;3.40;;
76194;SDS011;64964;48.694;21.206;2023-03-08T13:42:52;6.07;;;3.10;;
76194;SDS011;64964;48.694;21.206;2023-03-08T13:45:19;5.93;;;3.10;;
76194;SDS011;64964;48.694;21.206;2023-03-08T13:47:45;7.03;;;2.77;;
76194;SDS011;64964;48.694;21.206;2023-03-08T13:50:16;7.60;;;5.07;;
76194;SDS011;64964;48.694;21.206;2023-03-08T13:52:44;6.65;;;3.70;;
76194;SDS011;64964;48.694;21.206;2023-03-08T13:55:18;18.85;;;5.25;;
76194;SDS011;64964;48.694;21.206;2023-03-08T13:57:50;9.75;;;4.20;;
76194;SDS011;64964;48.694;21.206;2023-03-08T14:00:24;5.03;;;2.80;;
76194;SDS011;64964;48.694;21.206;2023-03-08T14:02:55;7.50;;;3.40;;
76194;SDS011;64964;48.694;21.206;2023-03-08T14:05:26;6.50;;;3.22;;
76194;SDS011;64964;48.694;21.206;2023-03-08T14:10:33;4.15;;;3.08;;
76194;SDS011;64964;48.694;21.206;2023-03-08T14:12:59;4.87;;;2.73;;
76194;SDS011;64964;48.694;21.206;2023-03-08T14:15:24;6.75;;;3.00;;
76194;SDS011;64964;48.694;21.206;2023-03-08T14:17:50;5.27;;;3.23;;
76194;SDS011;64964;48.694;21.206;2023-03-08T14:22:49;7.18;;;3.92;;
76194;SDS011;64964;48.694;21.206;2023-03-08T14:25:20;5.83;;;2.97;;
76194;SDS011;64964;48.694;21.206;2023-03-08T14:27:46;5.57;;;3.00;;
76194;SDS011;64964;48.694;21.206;2023-03-08T14:32:55;6.13;;;3.47;;
76194;SDS011;64964;48.694;21.206;2023-03-08T14:35:39;10.30;;;3.85;;
76194;SDS011;64964;48.694;21.206;2023-03-08T14:38:11;8.55;;;3.60;;
76194;SDS011;64964;48.694;21.206;2023-03-08T14:40:48;6.97;;;3.78;;
76194;SDS011;64964;48.694;21.206;2023-03-08T14:43:14;10.30;;;3.60;;
76194;SDS011;64964;48.694;21.206;2023-03-08T14:50:52;5.82;;;3.38;;
76194;SDS011;64964;48.694;21.206;2023-03-08T14:53:24;5.75;;;3.35;;
76194;SDS011;64964;48.694;21.206;2023-03-08T14:55:53;5.63;;;3.50;;
76194;SDS011;64964;48.694;21.206;2023-03-08T14:58:19;8.25;;;4.60;;
76194;SDS011;64964;48.694;21.206;2023-03-08T15:00:50;5.97;;;3.30;;
76194;SDS011;64964;48.694;21.206;2023-03-08T15:03:19;6.85;;;3.63;;
76194;SDS011;64964;48.694;21.206;2023-03-08T15:05:45;7.03;;;3.60;;
76194;SDS011;64964;48.694;21.206;2023-03-08T15:08:11;7.80;;;3.40;;
76194;SDS011;64964;48.694;21.206;2023-03-08T15:10:38;8.60;;;3.70;;
76194;SDS011;64964;48.694;21.206;2023-03-08T15:13:25;7.67;;;3.73;;
76194;SDS011;64964;48.694;21.206;2023-03-08T15:15:50;9.60;;;4.18;;
76194;SDS011;64964;48.694;21.206;2023-03-08T15:18:15;8.17;;;3.83;;
76194;SDS011;64964;48.694;21.206;2023-03-08T15:20:42;3.78;;;2.35;;
76194;SDS011;64964;48.694;21.206;2023-03-08T15:23:12;4.03;;;2.90;;
76194;SDS011;64964;48.694;21.206;2023-03-08T15:25:43;12.75;;;6.32;;
76194;SDS011;64964;48.694;21.206;2023-03-08T15:28:09;7.10;;;3.90;;
76194;SDS011;64964;48.694;21.206;2023-03-08T15:30:37;9.63;;;4.00;;
76194;SDS011;64964;48.694;21.206;2023-03-08T15:33:03;7.68;;;4.40;;
76194;SDS011;64964;48.694;21.206;2023-03-08T15:35:28;7.77;;;4.27;;
76194;SDS011;64964;48.694;21.206;2023-03-08T15:37:54;9.40;;;4.40;;
76194;SDS011;64964;48.694;21.206;2023-03-08T15:40:20;11.03;;;5.00;;
76194;SDS011;64964;48.694;21.206;2023-03-08T15:42:49;10.73;;;5.30;;
76194;SDS011;64964;48.694;21.206;2023-03-08T15:45:15;9.43;;;4.40;;
76194;SDS011;64964;48.694;21.206;2023-03-08T15:47:41;9.63;;;6.03;;
76194;SDS011;64964;48.694;21.206;2023-03-08T15:50:14;14.67;;;8.20;;
76194;SDS011;64964;48.694;21.206;2023-03-08T15:52:41;12.53;;;6.70;;
76194;SDS011;64964;48.694;21.206;2023-03-08T15:55:09;14.77;;;5.82;;
76194;SDS011;64964;48.694;21.206;2023-03-08T15:57:36;14.38;;;7.18;;
76194;SDS011;64964;48.694;21.206;2023-03-08T16:00:02;18.27;;;5.72;;
76194;SDS011;64964;48.694;21.206;2023-03-08T16:02:33;11.02;;;6.03;;